宮崎空港の過去48時間の天気

宮崎空港 (Miyazaki)

現在時刻: 8/17 00:37 JST (8/16 15:37 UTC) 以下の時間は現地時間です。

過去48時間のMETAR気象情報
時間 風向 風速(m/s) 視程 気温(℃) 湿度(%) 気圧(hPa) 天気現象
16 21:00 西北西 2 10km以上 25 94 1009 周辺でしゅう雨
16 20:00 3 10km以上 27 94 1009 周辺でしゅう雨
16 19:00 北北東 5 10km以上 27 94 1008 弱いしゅう雨
16 18:00 北北東 6 10km以上 27 94 1008 弱いしゅう雨
16 17:00 北北東 5 10km以上 27 94 1007 周辺でしゅう雨
16 16:00 北北東 3 10km以上 28 84 1007
16 15:00 北北東 4 10km以上 27 89 1008 周辺でしゅう雨
16 14:00 不定 2 10km以上 28 94 1008 弱いしゅう雨
16 13:00 2 10km以上 28 89 1008 周辺でしゅう雨
16 12:17 北西 3 7000m 26 100 1008 弱いしゅう雨
16 12:00 西北西 3 3000m 26 100 1009 雷雨 もや
16 11:07 不定 2 5000m 27 94 1008 弱いしゅう雨 もや
16 11:00 3 4000m 28 89 1008 しゅう雨 もや
16 10:44 不定 1 8000m 27 94 1008 弱いしゅう雨
16 10:17 3 9000m 27 94 1008 弱いしゅう雨
16 10:00 不定 2 4000m 27 94 1008 しゅう雨 もや
16 09:38 北北西 3 3000m 28 94 1008 強いしゅう雨 もや
16 09:24 不定 1 3500m 28 94 1008 強いしゅう雨 もや
16 09:00 西 2 10km以上 28 94 1008 弱いしゅう雨
16 08:43 南東 2 10km以上 27 94 1008 周辺でしゅう雨
16 08:00 北北西 2 10km以上 27 94 1007 周辺でしゅう雨
16 07:44 不定 1 7000m 27 94 1007 弱いしゅう雨
16 07:34 北東 2 4000m 26 100 1007 強いしゅう雨 もや
16 07:00 不定 1 10km以上 26 100 1007 弱いしゅう雨
16 06:10 西北西 2 10km以上 26 100 1007 弱いしゅう雨
15 21:00 南南東 5 7000m 28 94 1008 周辺でしゅう雨
15 20:00 南南東 8 7000m 27 94 1008 弱いしゅう雨
15 19:00 5 7000m 28 94 1008 周辺でしゅう雨
15 18:13 南東 7 5000m 27 100 1008 弱いしゅう雨 もや
15 18:00 南南東 5 4000m 28 94 1008 強いしゅう雨 もや
15 17:28 南東 8 8000m 28 89 1008 弱いしゅう雨
15 17:11 南南東 5 4000m 29 94 1008 しゅう雨 もや
15 17:00 南南東 6 10km以上 29 89 1008 周辺でしゅう雨
15 16:00 南南東 4 10km以上 30 84 1008
15 15:00 南南東 7 10km以上 30 84 1008
15 14:00 南南東 7 10km以上 30 84 1008
15 13:08 南南東 9 10km以上 29 84 1009 弱いしゅう雨
15 13:00 南南東 7 10km以上 30 84 1008 周辺でしゅう雨
15 12:25 2 10km以上 31 79 1008 周辺でしゅう雨
15 12:00 南南東 7 8000m 30 89 1008 弱いしゅう雨
15 11:36 南東 4 5000m 28 94 1008 弱いしゅう雨 もや
15 11:20 南東 3 2000m 28 94 1009 強いしゅう雨 もや
15 11:00 南東 2 10km以上 29 89 1008 周辺でしゅう雨
15 10:00 南南西 3 8000m 27 94 1009 弱いしゅう雨
15 09:13 南東 5 5000m 26 100 1008 弱いしゅう雨 もや
15 09:00 4 2500m 27 94 1009 雷雨 もや
15 08:00 2 7000m 26 100 1008 弱いしゅう雨
15 07:41 2 5000m 26 100 1008 しゅう雨 もや
15 07:00 不定 1 10km以上 26 100 1008 弱いしゅう雨
15 06:10 北北西 3 10km以上 26 100 1008 周辺でしゅう雨
RJFM 161200Z 30003KT 250V010 9999 VCSH FEW004 SCT007 BKN/// 25/24 Q1009
RJFM 161100Z 01005KT 9999 VCSH SCT008 BKN013 BKN/// 27/26 Q1009
RJFM 161000Z 02010KT 9999 -SHRA FEW005 BKN015 BKN/// 27/26 Q1008
RJFM 160900Z 02011KT 9999 -SHRA FEW006 BKN012 BKN/// 27/26 Q1008
RJFM 160800Z 03009KT 9999 VCSH FEW006 BKN012 27/26 Q1007
RJFM 160700Z 03006KT 9999 FEW005 BKN012 BKN/// 28/25 Q1007
RJFM 160600Z 02008KT 9999 VCSH FEW005 SCT010 BKN/// 27/25 Q1008
RJFM 160500Z VRB03KT 9999 -SHRA FEW003 BKN010 FEW020CB BKN030 28/27 Q1008
RJFM 160400Z 36004KT 290V020 9999 VCSH FEW005 SCT015 BKN035 28/26 Q1008
RJFM 160317Z 32006KT 280V360 7000 -SHRA FEW002 SCT010 BKN015 FEW020CB 26/26 Q1008 RMK 1ST002 3CU010 6CU015 1CB020 A2979 CB 10KM N MOV N
RJFM 160300Z 29006KT 250V320 3000 TSRA BR FEW003 SCT009 BKN010 FEW020CB 26/26 Q1009
RJFM 160207Z VRB04KT 5000 -SHRA BR FEW003 BKN012 BKN020 27/26 Q1008 RMK 1ST003 5CU012 7CU020 A2978
RJFM 160200Z 19006KT 160V230 4000 R27/0800VP1800U SHRA BR FEW005 SCT010 BKN012 28/26 Q1008
RJFM 160144Z VRB02KT 8000 R27/0650VP1800D -SHRA FEW005 BKN012 BKN020 27/26 Q1008 RMK 1ST005 5CU012 7CU020 A2978 4000NE-E
RJFM 160117Z VRB05KT 9000 -SHRA FEW005 SCT010 BKN015 27/26 Q1008 RMK 1ST005 3CU010 6CU015 A2979
RJFM 160100Z VRB03KT 4000 SHRA BR FEW004 SCT010 BKN015 27/26 Q1008
RJFM 160038Z 33005KT 260V010 3000 +SHRA BR FEW004 SCT015 BKN020 28/27 Q1008 RMK 1ST004 3CU015 6CU020 A2977 RI++
RJFM 160024Z VRB02KT 3500 R27/0450VP1800D +SHRA BR FEW004 BKN020 BKN030 28/27 Q1008 RMK 1ST004 5CU020 7CU030 A2977 RI++
RJFM 160000Z 27003KT 210V300 9999 -SHRA FEW005 SCT020 BKN030 28/27 Q1008
RJFM 152343Z 14003KT 060V200 9999 VCSH FEW005 SCT025 BKN040 27/26 Q1008 RMK 1ST005 4CU025 6CU040 A2977
RJFM 152300Z 33004KT 9999 VCSH FEW005 SCT025 BKN035 27/26 Q1007
RJFM 152244Z VRB02KT 7000 R27/0650VP1800U -SHRA FEW005 SCT020 BKN030 27/26 Q1007 RMK 1ST005 4CU020 6CU030 A2975
RJFM 152234Z 05003KT 350V140 4000 R27/0500VP1800D +SHRA BR FEW005 BKN020 BKN030 26/26 Q1007 RMK 1ST005 5CU020 6CU030 A2976 RI++
RJFM 152200Z VRB02KT 9999 -SHRA FEW003 SCT020 BKN030 26/26 Q1007
RJFM 152110Z 30004KT 9999 -SHRA FEW005 SCT020 BKN035 26/26 Q1007 RMK 1ST005 3CU020 6CU035 A2976
RJFM 151200Z 15010KT 7000 VCSH FEW005 SCT015 BKN020 28/27 Q1008
RJFM 151100Z 15016KT 7000 -SHRA FEW005 SCT015 BKN030 27/26 Q1008
RJFM 151000Z 17010KT 7000 VCSH FEW005 SCT020 BKN/// 28/27 Q1008
RJFM 150913Z 14014KT 5000 R27/1200VP1800U -SHRA BR FEW005 SCT015 BKN030 27/27 Q1008 RMK 1ST005 3CU015 5CU030 A2979
RJFM 150900Z 15010KT 4000 +SHRA BR FEW005 SCT015 BKN030 28/27 Q1008
RJFM 150828Z 14015G25KT 8000 -SHRA FEW005 SCT020 BKN030 28/26 Q1008 RMK 1ST005 3CU020 5CU030 A2978
RJFM 150811Z 15010G22KT 4000 R27/0750VP1800D SHRA BR FEW005 SCT020 BKN030 29/28 Q1008 RMK 1ST005 3CU020 5CU030 A2978
RJFM 150800Z 16011KT 9999 VCSH FEW005 BKN030 BKN/// 29/27 Q1008
RJFM 150700Z 15008KT 9999 FEW005 SCT030 BKN/// 30/27 Q1008
RJFM 150600Z 16013KT 9999 FEW005 SCT030 BKN/// 30/27 Q1008
RJFM 150500Z 16014KT 9999 FEW005 SCT025 BKN030 30/27 Q1008
RJFM 150408Z 16017KT 9999 -SHRA FEW005 SCT020 BKN025 29/26 Q1009 RMK 1ST005 3CU020 6CU025 A2979
RJFM 150400Z 16014KT 9999 VCSH FEW005 SCT020 BKN025 30/27 Q1008
RJFM 150325Z 19004KT 150V220 9999 VCSH FEW005 SCT015 BKN025 31/27 Q1008 RMK 1ST005 3CU015 5CU025 A2979
RJFM 150300Z 16014KT 8000 -SHRA FEW004 SCT015 FEW020CB BKN025 30/28 Q1008
RJFM 150236Z 13007KT 5000 R27/1000VP1800U -SHRA BR FEW004 SCT010 BKN015 28/27 Q1008 RMK 1ST004 3CU010 5CU015 A2978
RJFM 150220Z 14006KT 110V180 2000 +SHRA BR FEW005 BKN015 BKN020 28/27 Q1009 RMK 1ST005 5CU015 6CU020 A2980 RI++
RJFM 150200Z 13003KT 090V250 9999 VCSH FEW005 SCT015 BKN020 29/27 Q1008
RJFM 150100Z 20005KT 8000 -SHRA FEW005 SCT020 BKN030 27/26 Q1009
RJFM 150013Z 14009KT 5000 -SHRA BR FEW003 SCT009 FEW015CB BKN025 26/26 Q1008 RMK 1ST003 3ST009 1CB015 6CU025 A2979 CB 10KM N MOV N
RJFM 150000Z 17008KT 130V200 2500 R27/1300VP1800U TSRA BR FEW003 SCT008 FEW015CB BKN020 27/26 Q1009
RJFM 142300Z 09004KT 010V150 7000 -SHRA FEW004 SCT009 BKN025 26/26 Q1008
RJFM 142241Z 01004KT 350V060 5000 SHRA BR FEW005 SCT015 BKN030 26/26 Q1008 RMK 1ST005 3CU015 6CU030 A2979
RJFM 142200Z VRB02KT 9999 -SHRA FEW005 SCT020 BKN030 26/26 Q1008
RJFM 142110Z 34005KT 9999 VCSH FEW005 SCT020 BKN040 26/26 Q1008 RMK 1ST005 3CU020 5CU040 A2977